sensor_id;sensor_type;location;lat;lon;timestamp;P1;durP1;ratioP1;P2;durP2;ratioP2
47539;SDS011;33280;52.152;21.052;2023-02-01T00:00:29;14.10;;;8.23;;
47539;SDS011;33280;52.152;21.052;2023-02-01T00:02:56;15.80;;;9.20;;
47539;SDS011;33280;52.152;21.052;2023-02-01T00:05:23;15.20;;;8.20;;
47539;SDS011;33280;52.152;21.052;2023-02-01T00:07:50;15.40;;;8.10;;
47539;SDS011;33280;52.152;21.052;2023-02-01T00:10:17;12.47;;;7.63;;
47539;SDS011;33280;52.152;21.052;2023-02-01T00:12:44;14.87;;;7.93;;
47539;SDS011;33280;52.152;21.052;2023-02-01T00:15:11;14.33;;;8.03;;
47539;SDS011;33280;52.152;21.052;2023-02-01T00:17:38;14.47;;;7.73;;
47539;SDS011;33280;52.152;21.052;2023-02-01T00:20:05;13.50;;;7.73;;
47539;SDS011;33280;52.152;21.052;2023-02-01T00:22:32;12.97;;;7.47;;
47539;SDS011;33280;52.152;21.052;2023-02-01T00:24:59;13.87;;;7.70;;
47539;SDS011;33280;52.152;21.052;2023-02-01T00:27:26;12.13;;;6.83;;
47539;SDS011;33280;52.152;21.052;2023-02-01T00:29:56;13.37;;;7.20;;
47539;SDS011;33280;52.152;21.052;2023-02-01T00:32:23;11.37;;;6.83;;
47539;SDS011;33280;52.152;21.052;2023-02-01T00:34:50;8.60;;;5.60;;
47539;SDS011;33280;52.152;21.052;2023-02-01T00:37:16;7.00;;;4.90;;
47539;SDS011;33280;52.152;21.052;2023-02-01T00:39:43;8.47;;;5.03;;
47539;SDS011;33280;52.152;21.052;2023-02-01T00:42:10;7.37;;;4.77;;
47539;SDS011;33280;52.152;21.052;2023-02-01T00:44:37;7.67;;;4.83;;
47539;SDS011;33280;52.152;21.052;2023-02-01T00:47:04;8.23;;;5.00;;
47539;SDS011;33280;52.152;21.052;2023-02-01T00:49:30;7.00;;;4.57;;
47539;SDS011;33280;52.152;21.052;2023-02-01T00:51:57;7.00;;;4.70;;
47539;SDS011;33280;52.152;21.052;2023-02-01T00:54:24;10.00;;;5.23;;
47539;SDS011;33280;52.152;21.052;2023-02-01T00:56:51;8.63;;;4.63;;
47539;SDS011;33280;52.152;21.052;2023-02-01T00:59:18;8.10;;;4.80;;
47539;SDS011;33280;52.152;21.052;2023-02-01T01:01:45;7.30;;;4.57;;
47539;SDS011;33280;52.152;21.052;2023-02-01T01:04:12;7.07;;;4.40;;
47539;SDS011;33280;52.152;21.052;2023-02-01T01:06:38;7.33;;;4.00;;
47539;SDS011;33280;52.152;21.052;2023-02-01T01:09:06;6.60;;;3.80;;
47539;SDS011;33280;52.152;21.052;2023-02-01T01:11:35;7.57;;;3.73;;
47539;SDS011;33280;52.152;21.052;2023-02-01T01:14:03;7.90;;;3.10;;
47539;SDS011;33280;52.152;21.052;2023-02-01T01:16:31;5.47;;;2.43;;
47539;SDS011;33280;52.152;21.052;2023-02-01T01:18:59;4.53;;;2.20;;
47539;SDS011;33280;52.152;21.052;2023-02-01T01:21:26;3.67;;;1.90;;
47539;SDS011;33280;52.152;21.052;2023-02-01T01:23:54;4.67;;;1.80;;
47539;SDS011;33280;52.152;21.052;2023-02-01T01:26:22;4.50;;;1.50;;
47539;SDS011;33280;52.152;21.052;2023-02-01T01:28:50;4.23;;;1.63;;
47539;SDS011;33280;52.152;21.052;2023-02-01T01:31:18;4.07;;;1.70;;
47539;SDS011;33280;52.152;21.052;2023-02-01T01:33:50;5.73;;;1.60;;
47539;SDS011;33280;52.152;21.052;2023-02-01T01:36:18;3.43;;;1.63;;
47539;SDS011;33280;52.152;21.052;2023-02-01T01:38:50;5.47;;;1.70;;
47539;SDS011;33280;52.152;21.052;2023-02-01T01:41:18;5.57;;;2.10;;
47539;SDS011;33280;52.152;21.052;2023-02-01T01:46:22;6.93;;;1.90;;
47539;SDS011;33280;52.152;21.052;2023-02-01T01:51:52;8.17;;;2.50;;
47539;SDS011;33280;52.152;21.052;2023-02-01T01:54:34;6.07;;;1.77;;
47539;SDS011;33280;52.152;21.052;2023-02-01T01:57:17;6.93;;;2.10;;
47539;SDS011;33280;52.152;21.052;2023-02-01T02:00:04;5.30;;;2.30;;
47539;SDS011;33280;52.152;21.052;2023-02-01T02:02:34;4.90;;;1.80;;
47539;SDS011;33280;52.152;21.052;2023-02-01T02:05:03;8.43;;;2.10;;
47539;SDS011;33280;52.152;21.052;2023-02-01T02:07:32;8.13;;;2.37;;
47539;SDS011;33280;52.152;21.052;2023-02-01T02:10:02;6.63;;;2.23;;
47539;SDS011;33280;52.152;21.052;2023-02-01T02:12:37;9.83;;;2.40;;
47539;SDS011;33280;52.152;21.052;2023-02-01T02:15:06;9.33;;;2.50;;
47539;SDS011;33280;52.152;21.052;2023-02-01T02:37:10;7.60;;;2.23;;
47539;SDS011;33280;52.152;21.052;2023-02-01T02:39:51;10.87;;;2.80;;
47539;SDS011;33280;52.152;21.052;2023-02-01T02:45:34;8.80;;;2.40;;
47539;SDS011;33280;52.152;21.052;2023-02-01T02:48:29;8.77;;;2.57;;
47539;SDS011;33280;52.152;21.052;2023-02-01T02:51:07;8.27;;;2.40;;
47539;SDS011;33280;52.152;21.052;2023-02-01T02:54:07;13.33;;;2.73;;
47539;SDS011;33280;52.152;21.052;2023-02-01T02:57:03;8.23;;;2.40;;
47539;SDS011;33280;52.152;21.052;2023-02-01T02:59:52;9.27;;;2.30;;
47539;SDS011;33280;52.152;21.052;2023-02-01T03:02:40;9.40;;;2.50;;
47539;SDS011;33280;52.152;21.052;2023-02-01T03:05:31;8.27;;;2.57;;
47539;SDS011;33280;52.152;21.052;2023-02-01T03:10:32;11.50;;;2.40;;
47539;SDS011;33280;52.152;21.052;2023-02-01T03:13:15;12.23;;;2.40;;
47539;SDS011;33280;52.152;21.052;2023-02-01T03:16:15;8.20;;;2.33;;
47539;SDS011;33280;52.152;21.052;2023-02-01T03:19:02;5.33;;;1.80;;
47539;SDS011;33280;52.152;21.052;2023-02-01T03:21:32;5.77;;;2.07;;
47539;SDS011;33280;52.152;21.052;2023-02-01T03:24:09;8.17;;;2.20;;
47539;SDS011;33280;52.152;21.052;2023-02-01T03:26:37;8.60;;;1.97;;
47539;SDS011;33280;52.152;21.052;2023-02-01T03:29:17;8.53;;;2.30;;
47539;SDS011;33280;52.152;21.052;2023-02-01T03:31:48;11.60;;;2.30;;
47539;SDS011;33280;52.152;21.052;2023-02-01T03:34:15;8.67;;;2.10;;
47539;SDS011;33280;52.152;21.052;2023-02-01T03:36:46;6.77;;;2.07;;
47539;SDS011;33280;52.152;21.052;2023-02-01T03:39:20;12.70;;;2.67;;
47539;SDS011;33280;52.152;21.052;2023-02-01T03:42:02;14.37;;;2.87;;
47539;SDS011;33280;52.152;21.052;2023-02-01T03:44:47;9.30;;;2.50;;
47539;SDS011;33280;52.152;21.052;2023-02-01T03:47:20;9.53;;;2.47;;
47539;SDS011;33280;52.152;21.052;2023-02-01T03:49:52;9.60;;;2.30;;
47539;SDS011;33280;52.152;21.052;2023-02-01T03:52:30;10.43;;;2.30;;
47539;SDS011;33280;52.152;21.052;2023-02-01T03:55:04;13.47;;;2.90;;
47539;SDS011;33280;52.152;21.052;2023-02-01T03:57:34;9.80;;;2.30;;
47539;SDS011;33280;52.152;21.052;2023-02-01T04:00:07;12.97;;;2.60;;
47539;SDS011;33280;52.152;21.052;2023-02-01T04:02:45;7.63;;;2.90;;
47539;SDS011;33280;52.152;21.052;2023-02-01T04:05:12;8.87;;;2.60;;
47539;SDS011;33280;52.152;21.052;2023-02-01T04:07:39;10.13;;;2.23;;
47539;SDS011;33280;52.152;21.052;2023-02-01T04:10:07;8.77;;;2.30;;
47539;SDS011;33280;52.152;21.052;2023-02-01T04:12:35;14.37;;;2.67;;
47539;SDS011;33280;52.152;21.052;2023-02-01T04:15:02;11.67;;;2.80;;
47539;SDS011;33280;52.152;21.052;2023-02-01T04:17:30;10.53;;;2.37;;
47539;SDS011;33280;52.152;21.052;2023-02-01T04:19:57;7.57;;;2.40;;
47539;SDS011;33280;52.152;21.052;2023-02-01T04:22:24;8.03;;;2.70;;
47539;SDS011;33280;52.152;21.052;2023-02-01T04:24:50;7.67;;;2.10;;
47539;SDS011;33280;52.152;21.052;2023-02-01T04:27:17;10.93;;;2.20;;
47539;SDS011;33280;52.152;21.052;2023-02-01T04:29:44;8.80;;;2.23;;
47539;SDS011;33280;52.152;21.052;2023-02-01T04:32:11;7.67;;;2.20;;
47539;SDS011;33280;52.152;21.052;2023-02-01T04:34:38;11.90;;;2.50;;
47539;SDS011;33280;52.152;21.052;2023-02-01T04:37:05;11.50;;;2.23;;
47539;SDS011;33280;52.152;21.052;2023-02-01T04:39:32;10.10;;;2.53;;
47539;SDS011;33280;52.152;21.052;2023-02-01T04:41:59;12.03;;;2.40;;
47539;SDS011;33280;52.152;21.052;2023-02-01T04:44:25;12.53;;;2.17;;
47539;SDS011;33280;52.152;21.052;2023-02-01T04:46:52;16.27;;;2.10;;
47539;SDS011;33280;52.152;21.052;2023-02-01T04:49:19;14.20;;;2.23;;
47539;SDS011;33280;52.152;21.052;2023-02-01T04:51:47;13.27;;;2.17;;
47539;SDS011;33280;52.152;21.052;2023-02-01T04:54:14;10.50;;;2.17;;
47539;SDS011;33280;52.152;21.052;2023-02-01T04:56:41;11.37;;;2.30;;
47539;SDS011;33280;52.152;21.052;2023-02-01T04:59:10;8.40;;;2.07;;
47539;SDS011;33280;52.152;21.052;2023-02-01T05:01:37;7.87;;;2.10;;
47539;SDS011;33280;52.152;21.052;2023-02-01T05:04:04;8.20;;;2.10;;
47539;SDS011;33280;52.152;21.052;2023-02-01T05:06:31;8.27;;;2.07;;
47539;SDS011;33280;52.152;21.052;2023-02-01T05:08:58;14.10;;;2.63;;
47539;SDS011;33280;52.152;21.052;2023-02-01T05:11:25;10.43;;;2.30;;
47539;SDS011;33280;52.152;21.052;2023-02-01T05:14:10;6.17;;;1.77;;
47539;SDS011;33280;52.152;21.052;2023-02-01T05:16:37;8.57;;;2.33;;
47539;SDS011;33280;52.152;21.052;2023-02-01T05:19:04;10.17;;;2.17;;
47539;SDS011;33280;52.152;21.052;2023-02-01T05:21:31;11.00;;;2.10;;
47539;SDS011;33280;52.152;21.052;2023-02-01T05:23:58;12.40;;;2.50;;
47539;SDS011;33280;52.152;21.052;2023-02-01T05:26:42;9.03;;;2.10;;
47539;SDS011;33280;52.152;21.052;2023-02-01T05:29:09;10.50;;;2.20;;
47539;SDS011;33280;52.152;21.052;2023-02-01T05:31:36;9.03;;;1.87;;
47539;SDS011;33280;52.152;21.052;2023-02-01T05:34:03;9.77;;;1.97;;
47539;SDS011;33280;52.152;21.052;2023-02-01T05:36:31;11.57;;;2.00;;
47539;SDS011;33280;52.152;21.052;2023-02-01T05:38:58;9.40;;;2.30;;
47539;SDS011;33280;52.152;21.052;2023-02-01T05:41:27;10.67;;;2.37;;
47539;SDS011;33280;52.152;21.052;2023-02-01T05:43:54;11.07;;;2.47;;
47539;SDS011;33280;52.152;21.052;2023-02-01T05:46:21;11.03;;;2.27;;
47539;SDS011;33280;52.152;21.052;2023-02-01T05:48:49;8.37;;;2.07;;
47539;SDS011;33280;52.152;21.052;2023-02-01T05:51:16;7.10;;;2.30;;
47539;SDS011;33280;52.152;21.052;2023-02-01T05:53:42;8.27;;;2.33;;
47539;SDS011;33280;52.152;21.052;2023-02-01T05:56:09;10.87;;;2.57;;
47539;SDS011;33280;52.152;21.052;2023-02-01T05:58:36;11.53;;;2.60;;
47539;SDS011;33280;52.152;21.052;2023-02-01T06:01:03;8.20;;;2.10;;
47539;SDS011;33280;52.152;21.052;2023-02-01T06:03:30;12.63;;;2.40;;
47539;SDS011;33280;52.152;21.052;2023-02-01T06:05:57;7.13;;;2.20;;
47539;SDS011;33280;52.152;21.052;2023-02-01T06:08:24;9.17;;;2.40;;
47539;SDS011;33280;52.152;21.052;2023-02-01T06:11:01;8.90;;;2.20;;
47539;SDS011;33280;52.152;21.052;2023-02-01T06:13:30;12.50;;;2.40;;
47539;SDS011;33280;52.152;21.052;2023-02-01T06:16:00;10.80;;;2.30;;
47539;SDS011;33280;52.152;21.052;2023-02-01T06:18:29;9.90;;;2.30;;
47539;SDS011;33280;52.152;21.052;2023-02-01T06:20:58;9.77;;;2.87;;
47539;SDS011;33280;52.152;21.052;2023-02-01T06:23:29;10.03;;;2.50;;
47539;SDS011;33280;52.152;21.052;2023-02-01T06:26:00;9.23;;;2.90;;
47539;SDS011;33280;52.152;21.052;2023-02-01T06:28:30;12.30;;;2.90;;
47539;SDS011;33280;52.152;21.052;2023-02-01T06:30:58;13.17;;;2.57;;
47539;SDS011;33280;52.152;21.052;2023-02-01T06:33:29;9.13;;;2.43;;
47539;SDS011;33280;52.152;21.052;2023-02-01T06:35:56;8.20;;;2.23;;
47539;SDS011;33280;52.152;21.052;2023-02-01T06:38:24;9.40;;;2.27;;
47539;SDS011;33280;52.152;21.052;2023-02-01T06:40:53;11.27;;;2.10;;
47539;SDS011;33280;52.152;21.052;2023-02-01T06:43:21;9.93;;;2.10;;
47539;SDS011;33280;52.152;21.052;2023-02-01T06:45:50;12.40;;;2.00;;
47539;SDS011;33280;52.152;21.052;2023-02-01T06:48:17;11.10;;;2.20;;
47539;SDS011;33280;52.152;21.052;2023-02-01T06:50:44;6.77;;;2.00;;
47539;SDS011;33280;52.152;21.052;2023-02-01T06:53:11;9.37;;;2.37;;
47539;SDS011;33280;52.152;21.052;2023-02-01T06:55:38;10.03;;;2.37;;
47539;SDS011;33280;52.152;21.052;2023-02-01T06:58:05;9.73;;;2.27;;
47539;SDS011;33280;52.152;21.052;2023-02-01T07:00:31;6.93;;;1.73;;
47539;SDS011;33280;52.152;21.052;2023-02-01T07:02:58;12.53;;;2.10;;
47539;SDS011;33280;52.152;21.052;2023-02-01T07:05:26;9.43;;;2.30;;
47539;SDS011;33280;52.152;21.052;2023-02-01T07:07:53;9.97;;;1.90;;
47539;SDS011;33280;52.152;21.052;2023-02-01T07:10:20;9.40;;;2.13;;
47539;SDS011;33280;52.152;21.052;2023-02-01T07:12:47;10.93;;;2.23;;
47539;SDS011;33280;52.152;21.052;2023-02-01T07:15:14;10.00;;;2.10;;
47539;SDS011;33280;52.152;21.052;2023-02-01T07:17:41;11.83;;;2.40;;
47539;SDS011;33280;52.152;21.052;2023-02-01T07:20:08;13.23;;;2.27;;
47539;SDS011;33280;52.152;21.052;2023-02-01T07:22:35;10.10;;;2.10;;
47539;SDS011;33280;52.152;21.052;2023-02-01T07:25:02;5.77;;;2.10;;
47539;SDS011;33280;52.152;21.052;2023-02-01T07:27:33;11.87;;;2.40;;
47539;SDS011;33280;52.152;21.052;2023-02-01T07:30:01;9.60;;;2.00;;
47539;SDS011;33280;52.152;21.052;2023-02-01T07:32:29;10.90;;;2.60;;
47539;SDS011;33280;52.152;21.052;2023-02-01T07:34:56;8.57;;;2.30;;
47539;SDS011;33280;52.152;21.052;2023-02-01T07:37:24;8.60;;;2.20;;
47539;SDS011;33280;52.152;21.052;2023-02-01T07:39:51;10.67;;;2.40;;
47539;SDS011;33280;52.152;21.052;2023-02-01T07:42:24;9.23;;;2.23;;
47539;SDS011;33280;52.152;21.052;2023-02-01T07:44:51;9.47;;;2.30;;
47539;SDS011;33280;52.152;21.052;2023-02-01T07:47:17;11.23;;;2.30;;
47539;SDS011;33280;52.152;21.052;2023-02-01T07:49:44;14.00;;;2.60;;
47539;SDS011;33280;52.152;21.052;2023-02-01T07:52:11;12.07;;;2.20;;
47539;SDS011;33280;52.152;21.052;2023-02-01T07:54:41;11.17;;;2.13;;
47539;SDS011;33280;52.152;21.052;2023-02-01T07:57:09;8.27;;;2.10;;
47539;SDS011;33280;52.152;21.052;2023-02-01T07:59:38;8.27;;;2.60;;
47539;SDS011;33280;52.152;21.052;2023-02-01T08:02:27;10.97;;;2.67;;
47539;SDS011;33280;52.152;21.052;2023-02-01T08:04:54;8.77;;;2.27;;
47539;SDS011;33280;52.152;21.052;2023-02-01T08:07:21;11.03;;;2.27;;
47539;SDS011;33280;52.152;21.052;2023-02-01T08:09:48;12.20;;;2.30;;
47539;SDS011;33280;52.152;21.052;2023-02-01T08:12:15;12.17;;;2.70;;
47539;SDS011;33280;52.152;21.052;2023-02-01T08:14:42;14.30;;;2.63;;
47539;SDS011;33280;52.152;21.052;2023-02-01T08:17:08;17.13;;;2.60;;
47539;SDS011;33280;52.152;21.052;2023-02-01T08:19:35;12.13;;;2.50;;
47539;SDS011;33280;52.152;21.052;2023-02-01T08:22:02;8.37;;;2.07;;
47539;SDS011;33280;52.152;21.052;2023-02-01T08:24:33;11.10;;;2.47;;
47539;SDS011;33280;52.152;21.052;2023-02-01T08:27:00;8.67;;;2.20;;
47539;SDS011;33280;52.152;21.052;2023-02-01T08:29:28;12.43;;;2.63;;
47539;SDS011;33280;52.152;21.052;2023-02-01T08:31:55;12.00;;;2.53;;
47539;SDS011;33280;52.152;21.052;2023-02-01T08:34:22;9.53;;;2.40;;
47539;SDS011;33280;52.152;21.052;2023-02-01T08:36:49;11.07;;;2.40;;
47539;SDS011;33280;52.152;21.052;2023-02-01T08:39:18;14.93;;;2.63;;
47539;SDS011;33280;52.152;21.052;2023-02-01T08:41:44;9.33;;;2.13;;
47539;SDS011;33280;52.152;21.052;2023-02-01T08:44:32;11.50;;;2.43;;
47539;SDS011;33280;52.152;21.052;2023-02-01T08:46:59;10.00;;;2.70;;
47539;SDS011;33280;52.152;21.052;2023-02-01T08:49:27;13.10;;;2.90;;
47539;SDS011;33280;52.152;21.052;2023-02-01T08:51:54;10.30;;;2.67;;
47539;SDS011;33280;52.152;21.052;2023-02-01T08:54:26;15.93;;;3.03;;
47539;SDS011;33280;52.152;21.052;2023-02-01T08:56:53;11.37;;;2.50;;
47539;SDS011;33280;52.152;21.052;2023-02-01T08:59:20;9.50;;;2.97;;
47539;SDS011;33280;52.152;21.052;2023-02-01T09:01:47;13.77;;;2.47;;
47539;SDS011;33280;52.152;21.052;2023-02-01T09:04:14;12.37;;;2.57;;
47539;SDS011;33280;52.152;21.052;2023-02-01T09:06:41;11.43;;;2.20;;
47539;SDS011;33280;52.152;21.052;2023-02-01T09:09:08;14.60;;;2.77;;
47539;SDS011;33280;52.152;21.052;2023-02-01T09:11:35;7.50;;;2.30;;
47539;SDS011;33280;52.152;21.052;2023-02-01T09:14:02;7.40;;;2.30;;
47539;SDS011;33280;52.152;21.052;2023-02-01T09:16:28;15.50;;;2.97;;
47539;SDS011;33280;52.152;21.052;2023-02-01T09:18:55;12.50;;;2.40;;
47539;SDS011;33280;52.152;21.052;2023-02-01T09:21:42;10.43;;;2.47;;
47539;SDS011;33280;52.152;21.052;2023-02-01T09:24:12;8.10;;;2.33;;
47539;SDS011;33280;52.152;21.052;2023-02-01T09:26:39;10.27;;;2.60;;
47539;SDS011;33280;52.152;21.052;2023-02-01T09:29:06;7.50;;;2.10;;
47539;SDS011;33280;52.152;21.052;2023-02-01T09:31:36;10.10;;;2.30;;
47539;SDS011;33280;52.152;21.052;2023-02-01T09:34:09;12.97;;;2.70;;
47539;SDS011;33280;52.152;21.052;2023-02-01T09:36:36;8.93;;;2.70;;
47539;SDS011;33280;52.152;21.052;2023-02-01T09:39:03;10.60;;;2.67;;
47539;SDS011;33280;52.152;21.052;2023-02-01T09:41:32;9.27;;;2.40;;
47539;SDS011;33280;52.152;21.052;2023-02-01T09:46:55;12.40;;;2.80;;
47539;SDS011;33280;52.152;21.052;2023-02-01T09:49:26;12.23;;;2.50;;
47539;SDS011;33280;52.152;21.052;2023-02-01T09:51:57;10.97;;;2.50;;
47539;SDS011;33280;52.152;21.052;2023-02-01T09:54:29;10.27;;;2.53;;
47539;SDS011;33280;52.152;21.052;2023-02-01T09:57:14;11.33;;;2.67;;
47539;SDS011;33280;52.152;21.052;2023-02-01T09:59:48;15.37;;;2.53;;
47539;SDS011;33280;52.152;21.052;2023-02-01T10:02:23;6.63;;;2.57;;
47539;SDS011;33280;52.152;21.052;2023-02-01T10:04:54;11.13;;;2.37;;
47539;SDS011;33280;52.152;21.052;2023-02-01T10:07:26;8.83;;;2.50;;
47539;SDS011;33280;52.152;21.052;2023-02-01T10:15:40;9.47;;;2.40;;
47539;SDS011;33280;52.152;21.052;2023-02-01T10:18:33;9.33;;;2.30;;
47539;SDS011;33280;52.152;21.052;2023-02-01T10:29:51;12.33;;;2.90;;
47539;SDS011;33280;52.152;21.052;2023-02-01T10:32:28;11.47;;;3.10;;
47539;SDS011;33280;52.152;21.052;2023-02-01T10:34:58;9.30;;;2.30;;
47539;SDS011;33280;52.152;21.052;2023-02-01T10:37:47;9.67;;;2.50;;
47539;SDS011;33280;52.152;21.052;2023-02-01T10:40:24;11.00;;;2.67;;
47539;SDS011;33280;52.152;21.052;2023-02-01T10:43:01;9.67;;;2.50;;
47539;SDS011;33280;52.152;21.052;2023-02-01T10:45:30;14.93;;;2.80;;
47539;SDS011;33280;52.152;21.052;2023-02-01T10:47:59;12.90;;;3.00;;
47539;SDS011;33280;52.152;21.052;2023-02-01T10:50:49;10.50;;;2.73;;
47539;SDS011;33280;52.152;21.052;2023-02-01T10:53:42;11.47;;;2.90;;
47539;SDS011;33280;52.152;21.052;2023-02-01T10:56:21;7.80;;;2.93;;
47539;SDS011;33280;52.152;21.052;2023-02-01T10:58:52;12.73;;;3.17;;
47539;SDS011;33280;52.152;21.052;2023-02-01T11:01:40;13.80;;;3.43;;
47539;SDS011;33280;52.152;21.052;2023-02-01T11:04:12;9.80;;;2.90;;
47539;SDS011;33280;52.152;21.052;2023-02-01T11:06:49;12.83;;;3.27;;
47539;SDS011;33280;52.152;21.052;2023-02-01T11:09:22;17.50;;;3.50;;
47539;SDS011;33280;52.152;21.052;2023-02-01T11:14:26;12.53;;;3.00;;
47539;SDS011;33280;52.152;21.052;2023-02-01T11:17:03;13.93;;;3.47;;
47539;SDS011;33280;52.152;21.052;2023-02-01T11:19:44;11.33;;;2.60;;
47539;SDS011;33280;52.152;21.052;2023-02-01T11:22:11;10.73;;;2.70;;
47539;SDS011;33280;52.152;21.052;2023-02-01T11:24:40;8.20;;;2.87;;
47539;SDS011;33280;52.152;21.052;2023-02-01T11:27:15;8.60;;;2.90;;
47539;SDS011;33280;52.152;21.052;2023-02-01T11:30:00;9.93;;;3.17;;
47539;SDS011;33280;52.152;21.052;2023-02-01T11:32:28;11.50;;;3.03;;
47539;SDS011;33280;52.152;21.052;2023-02-01T11:35:00;8.30;;;2.77;;
47539;SDS011;33280;52.152;21.052;2023-02-01T11:37:31;11.80;;;2.87;;
47539;SDS011;33280;52.152;21.052;2023-02-01T11:39:59;10.77;;;2.70;;
47539;SDS011;33280;52.152;21.052;2023-02-01T11:42:28;10.77;;;2.80;;
47539;SDS011;33280;52.152;21.052;2023-02-01T11:47:55;11.17;;;3.00;;
47539;SDS011;33280;52.152;21.052;2023-02-01T11:50:34;10.93;;;2.83;;
47539;SDS011;33280;52.152;21.052;2023-02-01T11:58:58;14.20;;;3.30;;
47539;SDS011;33280;52.152;21.052;2023-02-01T12:10:26;13.13;;;3.20;;
47539;SDS011;33280;52.152;21.052;2023-02-01T12:18:55;9.47;;;3.00;;
47539;SDS011;33280;52.152;21.052;2023-02-01T12:21:39;12.07;;;3.27;;
47539;SDS011;33280;52.152;21.052;2023-02-01T12:29:57;18.90;;;3.37;;
47539;SDS011;33280;52.152;21.052;2023-02-01T12:32:57;12.27;;;3.37;;
47539;SDS011;33280;52.152;21.052;2023-02-01T12:43:42;10.33;;;3.70;;
47539;SDS011;33280;52.152;21.052;2023-02-01T12:46:23;16.73;;;3.80;;
47539;SDS011;33280;52.152;21.052;2023-02-01T12:51:34;17.93;;;3.80;;
47539;SDS011;33280;52.152;21.052;2023-02-01T12:57:12;15.43;;;4.13;;
47539;SDS011;33280;52.152;21.052;2023-02-01T12:59:49;13.43;;;4.17;;
47539;SDS011;33280;52.152;21.052;2023-02-01T13:02:40;17.63;;;4.40;;
47539;SDS011;33280;52.152;21.052;2023-02-01T13:05:18;13.77;;;4.00;;
47539;SDS011;33280;52.152;21.052;2023-02-01T13:07:49;12.27;;;3.60;;
47539;SDS011;33280;52.152;21.052;2023-02-01T13:13:14;18.23;;;4.40;;
47539;SDS011;33280;52.152;21.052;2023-02-01T13:15:47;18.00;;;4.00;;
47539;SDS011;33280;52.152;21.052;2023-02-01T13:18:25;19.80;;;4.40;;
47539;SDS011;33280;52.152;21.052;2023-02-01T13:21:07;14.80;;;3.70;;
47539;SDS011;33280;52.152;21.052;2023-02-01T13:23:40;11.63;;;3.90;;
47539;SDS011;33280;52.152;21.052;2023-02-01T13:26:09;13.73;;;3.77;;
47539;SDS011;33280;52.152;21.052;2023-02-01T13:28:51;16.10;;;4.33;;
47539;SDS011;33280;52.152;21.052;2023-02-01T13:37:23;13.50;;;5.00;;
47539;SDS011;33280;52.152;21.052;2023-02-01T13:41:23;14.90;;;4.37;;
47539;SDS011;33280;52.152;21.052;2023-02-01T13:43:24;14.03;;;4.10;;
47539;SDS011;33280;52.152;21.052;2023-02-01T13:45:55;15.00;;;3.87;;
47539;SDS011;33280;52.152;21.052;2023-02-01T13:48:28;13.83;;;3.83;;
47539;SDS011;33280;52.152;21.052;2023-02-01T13:50:59;9.37;;;3.90;;
47539;SDS011;33280;52.152;21.052;2023-02-01T13:53:28;9.90;;;3.20;;
47539;SDS011;33280;52.152;21.052;2023-02-01T13:56:01;10.87;;;3.57;;
47539;SDS011;33280;52.152;21.052;2023-02-01T14:03:54;12.43;;;3.40;;
47539;SDS011;33280;52.152;21.052;2023-02-01T14:16:43;11.20;;;3.40;;
47539;SDS011;33280;52.152;21.052;2023-02-01T14:19:21;11.60;;;4.30;;
47539;SDS011;33280;52.152;21.052;2023-02-01T14:21:50;9.23;;;3.50;;
47539;SDS011;33280;52.152;21.052;2023-02-01T14:24:32;8.20;;;3.57;;
47539;SDS011;33280;52.152;21.052;2023-02-01T14:29:43;10.40;;;4.17;;
47539;SDS011;33280;52.152;21.052;2023-02-01T14:32:25;11.07;;;3.67;;
47539;SDS011;33280;52.152;21.052;2023-02-01T14:34:58;9.70;;;3.47;;
47539;SDS011;33280;52.152;21.052;2023-02-01T14:37:29;10.70;;;3.30;;
47539;SDS011;33280;52.152;21.052;2023-02-01T14:40:03;10.03;;;3.77;;
47539;SDS011;33280;52.152;21.052;2023-02-01T14:47:51;8.90;;;3.77;;
47539;SDS011;33280;52.152;21.052;2023-02-01T14:50:34;9.70;;;3.33;;
47539;SDS011;33280;52.152;21.052;2023-02-01T14:58:40;7.43;;;3.27;;
47539;SDS011;33280;52.152;21.052;2023-02-01T15:01:28;8.30;;;4.20;;
47539;SDS011;33280;52.152;21.052;2023-02-01T15:04:04;7.97;;;3.40;;
47539;SDS011;33280;52.152;21.052;2023-02-01T15:06:45;9.73;;;3.20;;
47539;SDS011;33280;52.152;21.052;2023-02-01T15:14:40;8.47;;;3.30;;
47539;SDS011;33280;52.152;21.052;2023-02-01T15:17:28;11.97;;;3.40;;
47539;SDS011;33280;52.152;21.052;2023-02-01T15:22:30;10.67;;;3.90;;
47539;SDS011;33280;52.152;21.052;2023-02-01T15:24:58;8.73;;;3.40;;
47539;SDS011;33280;52.152;21.052;2023-02-01T15:27:27;7.23;;;3.80;;
47539;SDS011;33280;52.152;21.052;2023-02-01T15:30:04;8.10;;;3.63;;
47539;SDS011;33280;52.152;21.052;2023-02-01T15:32:33;6.83;;;3.50;;
47539;SDS011;33280;52.152;21.052;2023-02-01T15:35:04;8.93;;;4.20;;
47539;SDS011;33280;52.152;21.052;2023-02-01T15:37:32;10.53;;;4.20;;
47539;SDS011;33280;52.152;21.052;2023-02-01T15:40:14;6.87;;;4.00;;
47539;SDS011;33280;52.152;21.052;2023-02-01T15:42:49;9.67;;;4.23;;
47539;SDS011;33280;52.152;21.052;2023-02-01T15:45:19;10.07;;;4.13;;
47539;SDS011;33280;52.152;21.052;2023-02-01T15:47:51;10.77;;;4.57;;
47539;SDS011;33280;52.152;21.052;2023-02-01T15:50:21;9.80;;;4.17;;
47539;SDS011;33280;52.152;21.052;2023-02-01T15:52:52;12.00;;;4.53;;
47539;SDS011;33280;52.152;21.052;2023-02-01T15:55:23;12.13;;;4.57;;
47539;SDS011;33280;52.152;21.052;2023-02-01T15:58:09;8.57;;;3.77;;
47539;SDS011;33280;52.152;21.052;2023-02-01T16:00:53;7.30;;;4.20;;
47539;SDS011;33280;52.152;21.052;2023-02-01T16:03:37;11.37;;;4.23;;
47539;SDS011;33280;52.152;21.052;2023-02-01T16:06:11;9.00;;;4.30;;
47539;SDS011;33280;52.152;21.052;2023-02-01T16:08:55;11.13;;;4.47;;
47539;SDS011;33280;52.152;21.052;2023-02-01T16:11:32;10.77;;;4.73;;
47539;SDS011;33280;52.152;21.052;2023-02-01T16:14:07;9.30;;;4.87;;
47539;SDS011;33280;52.152;21.052;2023-02-01T16:16:34;8.37;;;5.00;;
47539;SDS011;33280;52.152;21.052;2023-02-01T16:19:01;8.67;;;4.77;;
47539;SDS011;33280;52.152;21.052;2023-02-01T16:21:27;8.47;;;4.53;;
47539;SDS011;33280;52.152;21.052;2023-02-01T16:23:54;10.10;;;5.13;;
47539;SDS011;33280;52.152;21.052;2023-02-01T16:26:21;9.43;;;4.90;;
47539;SDS011;33280;52.152;21.052;2023-02-01T16:28:48;10.13;;;5.40;;
47539;SDS011;33280;52.152;21.052;2023-02-01T16:31:16;9.83;;;4.80;;
47539;SDS011;33280;52.152;21.052;2023-02-01T16:33:50;8.60;;;4.60;;
47539;SDS011;33280;52.152;21.052;2023-02-01T16:36:18;11.00;;;5.27;;
47539;SDS011;33280;52.152;21.052;2023-02-01T16:38:46;12.30;;;5.07;;
47539;SDS011;33280;52.152;21.052;2023-02-01T16:41:17;8.33;;;4.70;;
47539;SDS011;33280;52.152;21.052;2023-02-01T16:43:45;10.53;;;4.60;;
47539;SDS011;33280;52.152;21.052;2023-02-01T16:46:18;11.47;;;5.17;;
47539;SDS011;33280;52.152;21.052;2023-02-01T16:48:51;9.10;;;4.73;;
47539;SDS011;33280;52.152;21.052;2023-02-01T16:51:20;11.50;;;5.37;;
47539;SDS011;33280;52.152;21.052;2023-02-01T16:53:48;9.73;;;5.10;;
47539;SDS011;33280;52.152;21.052;2023-02-01T16:56:24;9.97;;;4.90;;
47539;SDS011;33280;52.152;21.052;2023-02-01T16:58:57;9.63;;;5.13;;
47539;SDS011;33280;52.152;21.052;2023-02-01T17:01:25;10.20;;;5.23;;
47539;SDS011;33280;52.152;21.052;2023-02-01T17:03:52;8.67;;;4.73;;
47539;SDS011;33280;52.152;21.052;2023-02-01T17:06:20;11.83;;;5.10;;
47539;SDS011;33280;52.152;21.052;2023-02-01T17:08:50;12.80;;;4.90;;
47539;SDS011;33280;52.152;21.052;2023-02-01T17:11:19;13.53;;;5.47;;
47539;SDS011;33280;52.152;21.052;2023-02-01T17:13:47;12.63;;;5.33;;